Du har inga inställningar för hoppväder.nu

Hoppväder.nu

Senast uppdaterat 05:14

UTC-tid

2018-06-20 kl. 03:14


Sol och måne

Solen går upp 1:48 och går ner 23:26 (beräknade cirkatider)
Nästa fullmåne blir om 8 dagar (2018-06-28)

METAR

ESNS (Skellefteå)
(24 minuter sedan)
ESNS 200250Z AUTO 26015KT 9999 NCD 11/05 Q0996=



ESNU (Umeå)
(24 minuter sedan)
ESNU 200250Z 25007KT CAVOK 11/04 Q0999=



ESPA (Luleå)
(24 minuter sedan)
ESPA 200250Z AUTO 27011KT 9999 NCD 10/06 Q0994=









TAF

ESNS (Skellefteå)
ESNS



ESNU (Umeå)
(44 minuter sedan)
ESNU 200230Z 2003/2012 26010KT CAVOK BECMG 2005/2008 28015G25KT=



ESPA (Luleå)
ESPA





Kodnycklar till TAF och METAR






LHP

(Skellefteå är område A1b i Norra delen)

Prognos är inte uppdaterad




Spotting

Hur fungerar spotthjälpen och Vindkartan?

Markvind är ca 0 m/s.



Vindkartan

Senast uppdaterad 05:14




All data kommer från LFV.se